sensor_id;sensor_type;location;lat;lon;timestamp;pressure;altitude;pressure_sealevel;temperature;humidity
3428;BME280;1727;42.624;23.406;2023-06-14T00:01:02;94593.44;;;18.65;100.00
3428;BME280;1727;42.624;23.406;2023-06-14T00:03:31;94584.63;;;18.64;100.00
3428;BME280;1727;42.624;23.406;2023-06-14T00:05:58;94589.31;;;18.62;100.00
3428;BME280;1727;42.624;23.406;2023-06-14T00:08:25;94594.78;;;18.61;100.00
3428;BME280;1727;42.624;23.406;2023-06-14T00:10:53;94587.47;;;18.63;100.00
3428;BME280;1727;42.624;23.406;2023-06-14T00:13:20;94588.13;;;18.65;100.00
3428;BME280;1727;42.624;23.406;2023-06-14T00:15:47;94581.41;;;18.69;100.00
3428;BME280;1727;42.624;23.406;2023-06-14T00:18:14;94575.91;;;18.70;100.00
3428;BME280;1727;42.624;23.406;2023-06-14T00:20:42;94579.38;;;18.71;100.00
3428;BME280;1727;42.624;23.406;2023-06-14T00:23:08;94583.88;;;18.70;100.00
3428;BME280;1727;42.624;23.406;2023-06-14T00:25:35;94574.91;;;18.71;100.00
3428;BME280;1727;42.624;23.406;2023-06-14T00:28:03;94574.72;;;18.73;100.00
3428;BME280;1727;42.624;23.406;2023-06-14T00:30:30;94573.50;;;18.75;100.00
3428;BME280;1727;42.624;23.406;2023-06-14T00:32:57;94568.38;;;18.74;100.00
3428;BME280;1727;42.624;23.406;2023-06-14T00:35:24;94568.38;;;18.74;100.00
3428;BME280;1727;42.624;23.406;2023-06-14T00:37:51;94568.75;;;18.71;100.00
3428;BME280;1727;42.624;23.406;2023-06-14T00:40:20;94566.09;;;18.71;100.00
3428;BME280;1727;42.624;23.406;2023-06-14T00:42:46;94567.94;;;18.70;100.00
3428;BME280;1727;42.624;23.406;2023-06-14T00:45:15;94565.47;;;18.69;100.00
3428;BME280;1727;42.624;23.406;2023-06-14T00:47:42;94564.84;;;18.67;100.00
3428;BME280;1727;42.624;23.406;2023-06-14T00:50:09;94565.03;;;18.65;100.00
3428;BME280;1727;42.624;23.406;2023-06-14T00:52:36;94564.84;;;18.67;100.00
3428;BME280;1727;42.624;23.406;2023-06-14T00:55:04;94564.00;;;18.66;100.00
3428;BME280;1727;42.624;23.406;2023-06-14T00:57:31;94561.16;;;18.68;100.00
3428;BME280;1727;42.624;23.406;2023-06-14T00:59:58;94557.50;;;18.69;100.00
3428;BME280;1727;42.624;23.406;2023-06-14T01:02:26;94553.81;;;18.70;100.00
3428;BME280;1727;42.624;23.406;2023-06-14T01:04:53;94558.94;;;18.71;100.00
3428;BME280;1727;42.624;23.406;2023-06-14T05:11:28;94635.78;;;20.44;100.00
3428;BME280;1727;42.624;23.406;2023-06-14T05:13:55;94638.38;;;20.37;100.00
3428;BME280;1727;42.624;23.406;2023-06-14T05:16:23;94637.97;;;20.33;100.00
3428;BME280;1727;42.624;23.406;2023-06-14T05:18:51;94641.63;;;20.26;100.00
3428;BME280;1727;42.624;23.406;2023-06-14T05:21:17;94641.34;;;20.21;100.00
3428;BME280;1727;42.624;23.406;2023-06-14T05:23:44;94653.28;;;20.25;100.00
3428;BME280;1727;42.624;23.406;2023-06-14T05:26:11;94642.25;;;20.28;100.00
3428;BME280;1727;42.624;23.406;2023-06-14T05:28:39;94654.13;;;20.25;100.00
3428;BME280;1727;42.624;23.406;2023-06-14T05:31:06;94650.38;;;20.20;100.00
3428;BME280;1727;42.624;23.406;2023-06-14T05:33:33;94655.25;;;20.16;100.00
3428;BME280;1727;42.624;23.406;2023-06-14T05:35:59;94653.63;;;20.15;100.00
3428;BME280;1727;42.624;23.406;2023-06-14T05:38:26;94653.78;;;20.07;100.00
3428;BME280;1727;42.624;23.406;2023-06-14T05:40:53;94660.63;;;19.95;100.00
3428;BME280;1727;42.624;23.406;2023-06-14T05:43:20;94655.13;;;19.96;100.00
3428;BME280;1727;42.624;23.406;2023-06-14T05:45:48;94649.94;;;19.88;100.00
3428;BME280;1727;42.624;23.406;2023-06-14T05:48:15;94658.25;;;19.78;100.00
3428;BME280;1727;42.624;23.406;2023-06-14T05:50:41;94660.97;;;19.85;100.00
3428;BME280;1727;42.624;23.406;2023-06-14T05:53:08;94661.81;;;19.64;100.00
3428;BME280;1727;42.624;23.406;2023-06-14T05:55:35;94657.25;;;19.58;100.00
3428;BME280;1727;42.624;23.406;2023-06-14T05:58:02;94656.22;;;19.38;100.00
3428;BME280;1727;42.624;23.406;2023-06-14T06:00:28;94670.25;;;19.32;100.00
3428;BME280;1727;42.624;23.406;2023-06-14T06:02:57;94657.28;;;19.22;100.00
3428;BME280;1727;42.624;23.406;2023-06-14T06:05:24;94667.22;;;19.35;100.00
3428;BME280;1727;42.624;23.406;2023-06-14T06:07:51;94669.25;;;19.33;100.00
3428;BME280;1727;42.624;23.406;2023-06-14T06:10:18;94678.50;;;19.37;100.00
3428;BME280;1727;42.624;23.406;2023-06-14T06:12:45;94675.94;;;19.43;100.00
3428;BME280;1727;42.624;23.406;2023-06-14T06:15:12;94673.09;;;19.45;100.00
3428;BME280;1727;42.624;23.406;2023-06-14T06:17:39;94672.88;;;19.46;100.00
3428;BME280;1727;42.624;23.406;2023-06-14T06:20:09;94679.50;;;19.36;100.00
3428;BME280;1727;42.624;23.406;2023-06-14T06:22:37;94673.47;;;19.42;100.00
3428;BME280;1727;42.624;23.406;2023-06-14T06:25:04;94680.66;;;19.27;100.00
3428;BME280;1727;42.624;23.406;2023-06-14T06:27:31;94679.06;;;19.32;100.00
3428;BME280;1727;42.624;23.406;2023-06-14T06:29:58;94676.50;;;19.39;100.00
3428;BME280;1727;42.624;23.406;2023-06-14T06:32:25;94678.03;;;19.48;100.00
3428;BME280;1727;42.624;23.406;2023-06-14T06:34:52;94687.56;;;19.57;100.00
3428;BME280;1727;42.624;23.406;2023-06-14T06:37:20;94686.59;;;19.65;100.00
3428;BME280;1727;42.624;23.406;2023-06-14T06:39:46;94688.19;;;19.80;100.00
3428;BME280;1727;42.624;23.406;2023-06-14T06:42:14;94689.28;;;19.93;100.00
3428;BME280;1727;42.624;23.406;2023-06-14T06:44:40;94695.28;;;19.73;100.00
3428;BME280;1727;42.624;23.406;2023-06-14T06:47:07;94691.47;;;19.83;100.00
3428;BME280;1727;42.624;23.406;2023-06-14T06:49:35;94699.84;;;20.01;100.00
3428;BME280;1727;42.624;23.406;2023-06-14T06:52:03;94686.41;;;19.88;100.00
3428;BME280;1727;42.624;23.406;2023-06-14T06:54:32;94694.44;;;19.94;100.00
3428;BME280;1727;42.624;23.406;2023-06-14T06:56:59;94693.25;;;19.97;100.00
3428;BME280;1727;42.624;23.406;2023-06-14T06:59:27;94701.13;;;20.11;100.00
3428;BME280;1727;42.624;23.406;2023-06-14T07:01:53;94704.28;;;20.22;100.00
3428;BME280;1727;42.624;23.406;2023-06-14T07:04:20;94701.06;;;20.26;98.89
3428;BME280;1727;42.624;23.406;2023-06-14T07:06:47;94698.44;;;20.33;99.44
3428;BME280;1727;42.624;23.406;2023-06-14T07:09:14;94699.78;;;20.50;99.20
3428;BME280;1727;42.624;23.406;2023-06-14T07:11:44;94700.09;;;20.62;97.40
3428;BME280;1727;42.624;23.406;2023-06-14T07:14:11;94704.47;;;20.76;96.73
3428;BME280;1727;42.624;23.406;2023-06-14T07:16:38;94700.09;;;20.62;97.16
3428;BME280;1727;42.624;23.406;2023-06-14T07:19:06;94699.50;;;20.66;96.81
3428;BME280;1727;42.624;23.406;2023-06-14T07:21:34;94699.44;;;20.53;94.68
3428;BME280;1727;42.624;23.406;2023-06-14T07:24:03;94698.41;;;20.95;94.60
3428;BME280;1727;42.624;23.406;2023-06-14T07:26:30;94692.69;;;21.53;88.53
3428;BME280;1727;42.624;23.406;2023-06-14T07:28:58;94695.88;;;22.09;85.98
3428;BME280;1727;42.624;23.406;2023-06-14T07:31:25;94695.41;;;22.65;86.83
3428;BME280;1727;42.624;23.406;2023-06-14T07:33:51;94697.78;;;23.06;84.88
3428;BME280;1727;42.624;23.406;2023-06-14T07:36:18;94690.22;;;23.41;81.66
3428;BME280;1727;42.624;23.406;2023-06-14T07:38:45;94703.63;;;23.79;78.06
3428;BME280;1727;42.624;23.406;2023-06-14T07:41:12;94696.84;;;24.08;78.68
3428;BME280;1727;42.624;23.406;2023-06-14T07:43:39;94702.03;;;24.53;76.62
3428;BME280;1727;42.624;23.406;2023-06-14T07:46:07;94704.63;;;24.66;75.12
3428;BME280;1727;42.624;23.406;2023-06-14T07:48:34;94703.84;;;24.09;76.79
3428;BME280;1727;42.624;23.406;2023-06-14T07:51:01;94703.53;;;23.61;76.75
3428;BME280;1727;42.624;23.406;2023-06-14T07:53:28;94703.41;;;23.36;78.81
3428;BME280;1727;42.624;23.406;2023-06-14T07:55:56;94706.09;;;22.92;79.12
3428;BME280;1727;42.624;23.406;2023-06-14T07:58:22;94712.75;;;23.27;79.83
3428;BME280;1727;42.624;23.406;2023-06-14T08:00:49;94707.56;;;23.77;80.56
3428;BME280;1727;42.624;23.406;2023-06-14T08:03:18;94702.47;;;24.25;79.59
3428;BME280;1727;42.624;23.406;2023-06-14T08:05:45;94713.59;;;24.54;76.13
3428;BME280;1727;42.624;23.406;2023-06-14T08:08:12;94718.66;;;24.87;75.35
3428;BME280;1727;42.624;23.406;2023-06-14T08:10:38;94711.97;;;25.14;72.97
3428;BME280;1727;42.624;23.406;2023-06-14T08:13:05;94740.00;;;25.55;71.16
3428;BME280;1727;42.624;23.406;2023-06-14T08:15:32;94734.88;;;25.53;70.32
3428;BME280;1727;42.624;23.406;2023-06-14T08:17:59;94742.97;;;25.65;70.71
3428;BME280;1727;42.624;23.406;2023-06-14T08:20:28;94745.00;;;25.70;69.60
3428;BME280;1727;42.624;23.406;2023-06-14T08:22:56;94736.41;;;24.88;70.78
3428;BME280;1727;42.624;23.406;2023-06-14T08:25:23;94736.28;;;25.01;72.60
3428;BME280;1727;42.624;23.406;2023-06-14T08:27:51;94738.56;;;25.22;70.54
3428;BME280;1727;42.624;23.406;2023-06-14T08:30:18;94743.44;;;25.44;69.93
3428;BME280;1727;42.624;23.406;2023-06-14T08:32:44;94746.75;;;25.46;69.67
3428;BME280;1727;42.624;23.406;2023-06-14T08:35:11;94739.50;;;25.46;69.09
3428;BME280;1727;42.624;23.406;2023-06-14T08:37:41;94741.44;;;25.57;68.52
3428;BME280;1727;42.624;23.406;2023-06-14T08:40:18;94743.13;;;25.70;70.10
3428;BME280;1727;42.624;23.406;2023-06-14T08:42:47;94747.09;;;25.98;67.36
3428;BME280;1727;42.624;23.406;2023-06-14T08:45:16;94738.53;;;26.19;66.72
3428;BME280;1727;42.624;23.406;2023-06-14T08:47:43;94737.91;;;26.47;67.41
3428;BME280;1727;42.624;23.406;2023-06-14T08:50:11;94734.03;;;26.54;65.05
3428;BME280;1727;42.624;23.406;2023-06-14T08:52:45;94725.50;;;26.46;68.44
3428;BME280;1727;42.624;23.406;2023-06-14T08:55:15;94718.31;;;26.28;65.96
3428;BME280;1727;42.624;23.406;2023-06-14T08:57:43;94727.38;;;26.34;66.39
3428;BME280;1727;42.624;23.406;2023-06-14T09:00:12;94723.06;;;26.44;66.40
3428;BME280;1727;42.624;23.406;2023-06-14T09:02:40;94720.94;;;26.46;65.26
3428;BME280;1727;42.624;23.406;2023-06-14T09:05:09;94724.97;;;26.25;65.08
3428;BME280;1727;42.624;23.406;2023-06-14T09:07:36;94725.88;;;25.59;67.40
3428;BME280;1727;42.624;23.406;2023-06-14T09:10:10;94720.31;;;25.43;69.05
3428;BME280;1727;42.624;23.406;2023-06-14T09:12:37;94715.13;;;25.29;69.85
3428;BME280;1727;42.624;23.406;2023-06-14T09:15:06;94708.53;;;25.07;69.64
3428;BME280;1727;42.624;23.406;2023-06-14T09:17:34;94713.41;;;24.98;71.79
3428;BME280;1727;42.624;23.406;2023-06-14T09:20:01;94714.25;;;24.74;70.77
3428;BME280;1727;42.624;23.406;2023-06-14T09:22:31;94705.22;;;24.68;72.43
3428;BME280;1727;42.624;23.406;2023-06-14T09:24:58;94710.47;;;24.57;71.87
3428;BME280;1727;42.624;23.406;2023-06-14T09:27:27;94703.50;;;24.31;71.93
3428;BME280;1727;42.624;23.406;2023-06-14T09:29:54;94707.53;;;24.40;75.29
3428;BME280;1727;42.624;23.406;2023-06-14T09:32:21;94700.06;;;24.17;72.06
3428;BME280;1727;42.624;23.406;2023-06-14T09:34:48;94697.53;;;24.22;74.11
3428;BME280;1727;42.624;23.406;2023-06-14T09:37:27;94702.97;;;24.16;71.98
3428;BME280;1727;42.624;23.406;2023-06-14T09:39:53;94695.44;;;23.99;73.47
3428;BME280;1727;42.624;23.406;2023-06-14T09:42:20;94693.09;;;23.46;74.81
3428;BME280;1727;42.624;23.406;2023-06-14T09:44:52;94688.28;;;23.55;74.86
3428;BME280;1727;42.624;23.406;2023-06-14T09:47:19;94686.34;;;23.75;76.07
3428;BME280;1727;42.624;23.406;2023-06-14T09:49:46;94687.06;;;23.89;74.23
3428;BME280;1727;42.624;23.406;2023-06-14T09:52:15;94676.38;;;23.51;76.21
3428;BME280;1727;42.624;23.406;2023-06-14T09:54:43;94678.28;;;23.37;77.77
3428;BME280;1727;42.624;23.406;2023-06-14T09:57:12;94682.81;;;23.43;75.30
3428;BME280;1727;42.624;23.406;2023-06-14T09:59:41;94680.19;;;23.68;77.10
3428;BME280;1727;42.624;23.406;2023-06-14T10:02:16;94681.75;;;23.83;75.78
3428;BME280;1727;42.624;23.406;2023-06-14T10:04:49;94674.41;;;24.03;76.45
3428;BME280;1727;42.624;23.406;2023-06-14T10:07:19;94667.94;;;24.10;77.34
3428;BME280;1727;42.624;23.406;2023-06-14T10:09:47;94666.78;;;24.25;73.96
3428;BME280;1727;42.624;23.406;2023-06-14T10:12:16;94670.50;;;24.24;73.64
3428;BME280;1727;42.624;23.406;2023-06-14T10:14:49;94670.88;;;24.27;73.27
3428;BME280;1727;42.624;23.406;2023-06-14T10:17:23;94671.09;;;24.32;72.65
3428;BME280;1727;42.624;23.406;2023-06-14T10:19:57;94662.50;;;24.67;72.37
3428;BME280;1727;42.624;23.406;2023-06-14T10:22:35;94656.03;;;24.93;71.32
3428;BME280;1727;42.624;23.406;2023-06-14T10:25:07;94662.44;;;24.92;69.58
3428;BME280;1727;42.624;23.406;2023-06-14T10:27:37;94667.44;;;24.88;71.50
3428;BME280;1727;42.624;23.406;2023-06-14T10:30:07;94662.25;;;24.50;73.15
3428;BME280;1727;42.624;23.406;2023-06-14T10:33:04;94656.66;;;24.27;73.32
3428;BME280;1727;42.624;23.406;2023-06-14T10:35:31;94659.56;;;24.32;71.78
3428;BME280;1727;42.624;23.406;2023-06-14T10:38:06;94654.34;;;24.55;73.89
3428;BME280;1727;42.624;23.406;2023-06-14T10:40:34;94660.50;;;24.62;71.06
3428;BME280;1727;42.624;23.406;2023-06-14T10:43:01;94648.88;;;24.68;70.86
3428;BME280;1727;42.624;23.406;2023-06-14T10:46:14;94656.34;;;25.03;73.00
3428;BME280;1727;42.624;23.406;2023-06-14T10:48:43;94654.47;;;25.04;68.80
3428;BME280;1727;42.624;23.406;2023-06-14T10:51:17;94646.31;;;24.55;69.26
3428;BME280;1727;42.624;23.406;2023-06-14T10:53:46;94641.38;;;24.52;71.42
3428;BME280;1727;42.624;23.406;2023-06-14T10:56:26;94635.78;;;24.54;67.66
3428;BME280;1727;42.624;23.406;2023-06-14T10:58:53;94640.97;;;24.74;68.23
3428;BME280;1727;42.624;23.406;2023-06-14T11:01:31;94639.03;;;24.99;67.90
3428;BME280;1727;42.624;23.406;2023-06-14T11:04:06;94629.97;;;25.30;69.25
3428;BME280;1727;42.624;23.406;2023-06-14T11:06:45;94627.47;;;25.47;70.02
3428;BME280;1727;42.624;23.406;2023-06-14T11:09:50;94634.53;;;25.29;69.13
3428;BME280;1727;42.624;23.406;2023-06-14T11:12:21;94627.78;;;25.39;69.32
3428;BME280;1727;42.624;23.406;2023-06-14T11:14:48;94631.66;;;25.43;69.15
3428;BME280;1727;42.624;23.406;2023-06-14T11:17:15;94630.28;;;25.52;68.13
3428;BME280;1727;42.624;23.406;2023-06-14T11:19:43;94631.00;;;25.59;66.21
3428;BME280;1727;42.624;23.406;2023-06-14T11:22:10;94631.81;;;25.78;66.34
3428;BME280;1727;42.624;23.406;2023-06-14T11:24:37;94624.56;;;25.90;66.73
3428;BME280;1727;42.624;23.406;2023-06-14T11:27:04;94619.00;;;26.03;66.35
3428;BME280;1727;42.624;23.406;2023-06-14T11:29:31;94613.81;;;26.02;66.10
3428;BME280;1727;42.624;23.406;2023-06-14T11:31:58;94615.59;;;25.54;67.42
3428;BME280;1727;42.624;23.406;2023-06-14T11:34:25;94605.94;;;24.87;69.10
3428;BME280;1727;42.624;23.406;2023-06-14T11:36:53;94613.22;;;24.80;69.12
3428;BME280;1727;42.624;23.406;2023-06-14T11:39:24;94620.69;;;24.78;68.91
3428;BME280;1727;42.624;23.406;2023-06-14T11:41:51;94613.25;;;24.61;70.70
3428;BME280;1727;42.624;23.406;2023-06-14T11:44:18;94609.56;;;24.56;67.70
3428;BME280;1727;42.624;23.406;2023-06-14T11:46:45;94607.28;;;24.59;69.24
3428;BME280;1727;42.624;23.406;2023-06-14T11:49:11;94597.19;;;24.55;68.84
3428;BME280;1727;42.624;23.406;2023-06-14T11:51:38;94606.59;;;24.64;70.23
3428;BME280;1727;42.624;23.406;2023-06-14T11:54:06;94594.09;;;24.58;69.11
3428;BME280;1727;42.624;23.406;2023-06-14T11:56:34;94584.75;;;24.42;70.08
3428;BME280;1727;42.624;23.406;2023-06-14T11:59:02;94579.16;;;24.44;70.30
3428;BME280;1727;42.624;23.406;2023-06-14T12:01:31;94576.72;;;24.42;69.32
3428;BME280;1727;42.624;23.406;2023-06-14T12:03:59;94560.47;;;24.37;70.87
3428;BME280;1727;42.624;23.406;2023-06-14T12:06:26;94564.94;;;24.43;71.37
3428;BME280;1727;42.624;23.406;2023-06-14T12:08:58;94558.59;;;24.56;72.35
3428;BME280;1727;42.624;23.406;2023-06-14T12:11:32;94559.56;;;24.43;71.29
3428;BME280;1727;42.624;23.406;2023-06-14T12:13:59;94562.78;;;24.33;72.08
3428;BME280;1727;42.624;23.406;2023-06-14T12:16:30;94564.09;;;23.99;72.70
3428;BME280;1727;42.624;23.406;2023-06-14T12:19:00;94562.31;;;23.93;71.57
3428;BME280;1727;42.624;23.406;2023-06-14T12:21:27;94559.75;;;23.80;72.76
3428;BME280;1727;42.624;23.406;2023-06-14T12:23:54;94563.03;;;23.82;70.01
3428;BME280;1727;42.624;23.406;2023-06-14T12:26:21;94559.69;;;23.87;70.81
3428;BME280;1727;42.624;23.406;2023-06-14T12:28:52;94555.91;;;23.94;68.05
3428;BME280;1727;42.624;23.406;2023-06-14T12:31:19;94554.38;;;24.23;67.77
3428;BME280;1727;42.624;23.406;2023-06-14T12:33:46;94550.03;;;24.47;67.95
3428;BME280;1727;42.624;23.406;2023-06-14T12:36:14;94548.75;;;24.50;66.79
3428;BME280;1727;42.624;23.406;2023-06-14T12:38:41;94552.28;;;24.32;67.37
3428;BME280;1727;42.624;23.406;2023-06-14T12:41:08;94549.28;;;24.40;65.52
3428;BME280;1727;42.624;23.406;2023-06-14T12:43:35;94545.56;;;24.41;66.40
3428;BME280;1727;42.624;23.406;2023-06-14T12:46:03;94541.38;;;24.45;70.81
3428;BME280;1727;42.624;23.406;2023-06-14T12:48:30;94538.63;;;24.33;74.43
3428;BME280;1727;42.624;23.406;2023-06-14T12:50:57;94539.91;;;24.31;79.00
3428;BME280;1727;42.624;23.406;2023-06-14T12:53:23;94530.03;;;24.25;81.09
3428;BME280;1727;42.624;23.406;2023-06-14T12:55:50;94531.00;;;24.12;82.54
3428;BME280;1727;42.624;23.406;2023-06-14T12:58:17;94534.94;;;24.09;86.03
3428;BME280;1727;42.624;23.406;2023-06-14T13:00:45;94520.69;;;23.91;86.80
3428;BME280;1727;42.624;23.406;2023-06-14T13:03:13;94537.28;;;23.81;89.00
3428;BME280;1727;42.624;23.406;2023-06-14T13:05:40;94529.84;;;23.58;94.62
3428;BME280;1727;42.624;23.406;2023-06-14T13:08:08;94535.66;;;23.48;96.56
3428;BME280;1727;42.624;23.406;2023-06-14T13:10:35;94532.19;;;23.41;97.88
3428;BME280;1727;42.624;23.406;2023-06-14T13:13:02;94524.44;;;23.33;99.33
3428;BME280;1727;42.624;23.406;2023-06-14T13:15:29;94524.97;;;23.17;99.39
3428;BME280;1727;42.624;23.406;2023-06-14T13:17:56;94542.53;;;23.06;98.51
3428;BME280;1727;42.624;23.406;2023-06-14T13:20:24;94553.53;;;22.92;97.83
3428;BME280;1727;42.624;23.406;2023-06-14T13:22:51;94561.19;;;22.75;98.43
3428;BME280;1727;42.624;23.406;2023-06-14T13:25:18;94562.88;;;22.69;99.13
3428;BME280;1727;42.624;23.406;2023-06-14T13:27:44;94564.97;;;22.61;99.31
3428;BME280;1727;42.624;23.406;2023-06-14T13:30:12;94570.16;;;22.49;99.68
3428;BME280;1727;42.624;23.406;2023-06-14T13:32:39;94559.34;;;22.17;100.00
3428;BME280;1727;42.624;23.406;2023-06-14T13:35:06;94561.63;;;22.07;100.00
3428;BME280;1727;42.624;23.406;2023-06-14T13:37:34;94562.03;;;21.91;100.00
3428;BME280;1727;42.624;23.406;2023-06-14T13:40:01;94563.50;;;21.80;100.00
3428;BME280;1727;42.624;23.406;2023-06-14T13:42:28;94559.81;;;21.75;100.00
3428;BME280;1727;42.624;23.406;2023-06-14T13:44:57;94567.59;;;21.63;100.00
3428;BME280;1727;42.624;23.406;2023-06-14T13:47:24;94560.63;;;21.49;100.00
3428;BME280;1727;42.624;23.406;2023-06-14T13:49:51;94563.28;;;21.29;100.00
3428;BME280;1727;42.624;23.406;2023-06-14T13:52:17;94555.63;;;21.13;100.00
3428;BME280;1727;42.624;23.406;2023-06-14T13:54:46;94556.00;;;21.10;100.00
3428;BME280;1727;42.624;23.406;2023-06-14T13:57:13;94552.72;;;21.08;100.00
3428;BME280;1727;42.624;23.406;2023-06-14T13:59:40;94563.41;;;21.01;100.00
3428;BME280;1727;42.624;23.406;2023-06-14T14:02:07;94566.66;;;20.90;100.00
3428;BME280;1727;42.624;23.406;2023-06-14T14:04:34;94574.06;;;20.88;100.00
3428;BME280;1727;42.624;23.406;2023-06-14T14:07:01;94574.06;;;20.88;100.00
3428;BME280;1727;42.624;23.406;2023-06-14T14:09:28;94577.91;;;20.79;100.00
3428;BME280;1727;42.624;23.406;2023-06-14T14:11:57;94570.75;;;20.86;100.00
3428;BME280;1727;42.624;23.406;2023-06-14T14:14:24;94575.69;;;20.82;100.00
3428;BME280;1727;42.624;23.406;2023-06-14T14:16:51;94581.78;;;20.76;100.00
3428;BME280;1727;42.624;23.406;2023-06-14T14:19:18;94589.56;;;20.71;100.00
3428;BME280;1727;42.624;23.406;2023-06-14T14:21:45;94585.88;;;20.72;100.00
3428;BME280;1727;42.624;23.406;2023-06-14T14:24:12;94593.06;;;20.78;100.00
3428;BME280;1727;42.624;23.406;2023-06-14T14:26:39;94597.78;;;20.76;100.00
3428;BME280;1727;42.624;23.406;2023-06-14T14:29:07;94604.34;;;20.73;100.00
3428;BME280;1727;42.624;23.406;2023-06-14T14:31:36;94586.47;;;20.67;100.00
3428;BME280;1727;42.624;23.406;2023-06-14T14:34:03;94596.16;;;20.75;100.00
3428;BME280;1727;42.624;23.406;2023-06-14T14:36:30;94599.63;;;20.76;100.00
3428;BME280;1727;42.624;23.406;2023-06-14T14:38:58;94601.53;;;20.82;100.00
3428;BME280;1727;42.624;23.406;2023-06-14T14:41:25;94597.84;;;20.83;100.00
3428;BME280;1727;42.624;23.406;2023-06-14T14:43:52;94608.53;;;20.89;100.00
3428;BME280;1727;42.624;23.406;2023-06-14T14:46:20;94610.97;;;20.84;100.00
3428;BME280;1727;42.624;23.406;2023-06-14T14:48:47;94617.44;;;20.62;100.00
3428;BME280;1727;42.624;23.406;2023-06-14T14:51:13;94622.38;;;20.65;100.00
3428;BME280;1727;42.624;23.406;2023-06-14T14:53:40;94614.19;;;20.73;100.00
3428;BME280;1727;42.624;23.406;2023-06-14T14:56:07;94616.50;;;20.83;100.00
3428;BME280;1727;42.624;23.406;2023-06-14T14:58:34;94619.81;;;20.91;100.00
3428;BME280;1727;42.624;23.406;2023-06-14T15:01:00;94620.00;;;20.83;100.00
3428;BME280;1727;42.624;23.406;2023-06-14T15:03:28;94610.16;;;20.84;100.00
3428;BME280;1727;42.624;23.406;2023-06-14T15:05:55;94624.41;;;20.63;100.00
3428;BME280;1727;42.624;23.406;2023-06-14T15:08:22;94616.78;;;20.53;100.00
3428;BME280;1727;42.624;23.406;2023-06-14T15:10:49;94612.53;;;20.65;100.00
3428;BME280;1727;42.624;23.406;2023-06-14T15:13:16;94603.25;;;20.55;100.00
3428;BME280;1727;42.624;23.406;2023-06-14T15:15:43;94607.13;;;20.52;100.00
3428;BME280;1727;42.624;23.406;2023-06-14T15:18:10;94605.06;;;20.48;100.00
3428;BME280;1727;42.624;23.406;2023-06-14T15:20:38;94608.41;;;20.56;100.00
3428;BME280;1727;42.624;23.406;2023-06-14T15:23:06;94610.09;;;20.70;100.00
3428;BME280;1727;42.624;23.406;2023-06-14T15:25:33;94610.78;;;20.86;100.00
3428;BME280;1727;42.624;23.406;2023-06-14T15:27:59;94607.72;;;20.95;100.00
3428;BME280;1727;42.624;23.406;2023-06-14T15:30:27;94601.59;;;21.08;100.00
3428;BME280;1727;42.624;23.406;2023-06-14T15:32:54;94593.22;;;21.18;100.00
3428;BME280;1727;42.624;23.406;2023-06-14T15:35:21;94598.78;;;21.29;100.00
3428;BME280;1727;42.624;23.406;2023-06-14T15:37:49;94606.38;;;21.26;100.00
3428;BME280;1727;42.624;23.406;2023-06-14T15:40:16;94621.59;;;21.32;100.00
3428;BME280;1727;42.624;23.406;2023-06-14T15:42:43;94609.06;;;21.39;100.00
3428;BME280;1727;42.624;23.406;2023-06-14T15:45:10;94614.03;;;21.42;100.00
3428;BME280;1727;42.624;23.406;2023-06-14T15:47:37;94628.41;;;21.48;100.00
3428;BME280;1727;42.624;23.406;2023-06-14T15:50:04;94624.50;;;21.50;100.00
3428;BME280;1727;42.624;23.406;2023-06-14T15:52:33;94623.47;;;21.51;100.00
3428;BME280;1727;42.624;23.406;2023-06-14T15:55:01;94634.94;;;21.32;100.00
3428;BME280;1727;42.624;23.406;2023-06-14T15:57:29;94638.00;;;21.36;100.00
3428;BME280;1727;42.624;23.406;2023-06-14T15:59:56;94637.03;;;21.43;100.00
3428;BME280;1727;42.624;23.406;2023-06-14T16:02:22;94637.34;;;21.20;100.00
3428;BME280;1727;42.624;23.406;2023-06-14T16:04:49;94634.03;;;21.12;100.00
3428;BME280;1727;42.624;23.406;2023-06-14T16:07:16;94631.53;;;20.97;100.00
3428;BME280;1727;42.624;23.406;2023-06-14T16:09:43;94628.03;;;20.96;100.00
3428;BME280;1727;42.624;23.406;2023-06-14T16:12:12;94632.25;;;20.78;100.00
3428;BME280;1727;42.624;23.406;2023-06-14T16:14:39;94617.47;;;20.75;100.00
3428;BME280;1727;42.624;23.406;2023-06-14T16:17:06;94629.25;;;20.87;100.00
3428;BME280;1727;42.624;23.406;2023-06-14T16:19:33;94628.63;;;20.92;100.00
3428;BME280;1727;42.624;23.406;2023-06-14T16:21:59;94623.31;;;20.98;100.00
3428;BME280;1727;42.624;23.406;2023-06-14T16:24:26;94634.19;;;20.90;100.00
3428;BME280;1727;42.624;23.406;2023-06-14T16:26:53;94636.41;;;20.87;100.00
3428;BME280;1727;42.624;23.406;2023-06-14T16:29:21;94646.63;;;20.77;100.00
3428;BME280;1727;42.624;23.406;2023-06-14T16:31:48;94645.78;;;20.76;100.00
3428;BME280;1727;42.624;23.406;2023-06-14T16:34:15;94656.13;;;20.92;100.00
3428;BME280;1727;42.624;23.406;2023-06-14T16:36:42;94666.03;;;21.05;100.00
3428;BME280;1727;42.624;23.406;2023-06-14T16:39:12;94651.28;;;21.16;100.00
3428;BME280;1727;42.624;23.406;2023-06-14T16:41:39;94655.25;;;21.26;100.00
3428;BME280;1727;42.624;23.406;2023-06-14T16:44:06;94657.94;;;21.33;100.00
3428;BME280;1727;42.624;23.406;2023-06-14T16:46:35;94650.78;;;21.40;100.00
3428;BME280;1727;42.624;23.406;2023-06-14T16:49:03;94649.16;;;21.46;100.00
3428;BME280;1727;42.624;23.406;2023-06-14T16:51:30;94653.03;;;21.50;100.00
3428;BME280;1727;42.624;23.406;2023-06-14T16:53:56;94655.31;;;21.46;100.00
3428;BME280;1727;42.624;23.406;2023-06-14T16:56:24;94646.47;;;21.46;100.00
3428;BME280;1727;42.624;23.406;2023-06-14T16:58:52;94655.91;;;21.48;100.00
3428;BME280;1727;42.624;23.406;2023-06-14T17:01:19;94659.00;;;21.45;100.00
3428;BME280;1727;42.624;23.406;2023-06-14T17:03:48;94658.59;;;21.42;100.00
3428;BME280;1727;42.624;23.406;2023-06-14T17:06:17;94655.47;;;21.31;100.00
3428;BME280;1727;42.624;23.406;2023-06-14T17:08:46;94660.59;;;21.33;100.00
3428;BME280;1727;42.624;23.406;2023-06-14T17:11:12;94669.44;;;21.33;100.00
3428;BME280;1727;42.624;23.406;2023-06-14T17:13:40;94675.59;;;21.34;100.00